Time;durP1;ratioP1;P1;durP2;ratioP2;P2;SDS_P1;SDS_P2;PMS_P1;PMS_P2;Temp;Humidity;BMP_temperature;BMP_pressure;BME280_temperature;BME280_humidity;BME280_pressure;Samples;Min_cycle;Max_cycle;Signal;HPM_P1;HPM_P2
2022/04/29 00:01:55;;;;;;;22.17;13.20;;;;;;;14.23;47.78;101393.97;4860845;28;100128;-87
2022/04/29 00:04:21;;;;;;;19.88;12.35;;;;;;;14.00;48.18;101382.34;4856192;28;96988;-87
2022/04/29 00:06:46;;;;;;;23.35;14.18;;;;;;;14.16;47.95;101403.84;4860500;28;97010;-87
2022/04/29 00:09:12;;;;;;;22.80;14.30;;;;;;;14.11;47.78;101370.56;4888716;28;99011;-86
2022/04/29 00:11:37;;;;;;;33.65;15.85;;;;;;;14.30;48.27;101392.84;4877172;28;101180;-87
2022/04/29 00:14:03;;;;;;;23.52;15.98;;;;;;;14.26;47.68;101393.88;4879143;28;96561;-86
2022/04/29 00:16:28;;;;;;;24.42;15.60;;;;;;;14.04;48.35;101373.41;4887115;28;97140;-88
2022/04/29 00:18:54;;;;;;;25.33;16.30;;;;;;;14.18;48.09;101402.03;4859808;28;101363;-84
2022/04/29 00:21:20;;;;;;;26.90;15.60;;;;;;;14.08;48.01;101390.03;4860765;28;101569;-87
2022/04/29 00:23:45;;;;;;;27.70;17.08;;;;;;;14.17;47.84;101400.31;4873868;28;97044;-86
2022/04/29 00:26:11;;;;;;;25.55;15.52;;;;;;;14.25;47.82;101394.75;4886925;28;96990;-87
2022/04/29 00:28:36;;;;;;;27.38;16.08;;;;;;;14.15;47.45;101382.78;4841573;28;101719;-87
2022/04/29 00:31:02;;;;;;;24.98;15.45;;;;;;;13.97;47.72;101369.25;4853947;28;101235;-87
2022/04/29 00:33:27;;;;;;;29.55;15.82;;;;;;;14.00;48.11;101390.28;4873940;28;97088;-88
2022/04/29 00:35:53;;;;;;;26.40;16.08;;;;;;;14.08;48.09;101397.97;4873260;28;97584;-84
2022/04/29 00:38:18;;;;;;;30.15;16.77;;;;;;;14.16;47.96;101397.69;4868693;28;98923;-87
2022/04/29 00:40:45;;;;;;;28.52;17.20;;;;;;;14.24;47.89;101396.53;4876710;28;98298;-87
2022/04/29 00:43:12;;;;;;;28.50;16.58;;;;;;;13.99;47.88;101380.63;4872734;28;96988;-87
2022/04/29 00:45:38;;;;;;;30.42;17.92;;;;;;;13.86;48.24;101381.06;4856832;28;97317;-88
2022/04/29 00:48:04;;;;;;;25.05;17.08;;;;;;;13.90;48.69;101386.19;4840933;28;101416;-87
2022/04/29 00:50:30;;;;;;;31.88;17.75;;;;;;;13.84;48.47;101381.09;4873193;28;98241;-87
2022/04/29 00:52:57;;;;;;;31.15;18.63;;;;;;;13.86;48.37;101394.25;4856994;28;96817;-85
2022/04/29 00:55:23;;;;;;;31.30;18.23;;;;;;;13.80;48.90;101387.38;4841821;28;98202;-87
2022/04/29 00:58:02;;;;;;;31.38;17.42;;;;;;;13.83;48.40;101379.38;4851128;29;99853;-86
2022/04/29 01:00:28;;;;;;;32.08;17.48;;;;;;;13.77;48.83;101382.22;4876566;28;100614;-88
2022/04/29 01:02:54;;;;;;;31.67;18.48;;;;;;;13.71;49.08;101354.22;4857301;28;96796;-85
2022/04/29 01:05:22;;;;;;;27.90;16.88;;;;;;;13.79;49.29;101383.03;4853591;29;96817;-87
2022/04/29 01:07:49;;;;;;;29.90;16.98;;;;;;;13.80;48.81;101390.88;4838139;28;101554;-84
2022/04/29 01:10:20;;;;;;;27.40;16.98;;;;;;;13.82;49.27;101389.06;4853895;28;100890;-86
2022/04/29 01:12:54;;;;;;;28.77;16.42;;;;;;;13.79;49.07;101380.38;4840825;28;97212;-86
2022/04/29 01:15:20;;;;;;;27.17;16.02;;;;;;;13.63;49.27;101364.16;4850091;29;97117;-86
2022/04/29 01:17:47;;;;;;;29.02;17.50;;;;;;;13.62;50.01;101366.84;4852836;28;97017;-88
2022/04/29 01:20:15;;;;;;;29.55;17.60;;;;;;;13.61;49.67;101362.47;4856154;28;101137;-87
2022/04/29 01:22:44;;;;;;;29.75;17.45;;;;;;;13.56;50.13;101352.06;4853194;28;97691;-88
2022/04/29 01:25:11;;;;;;;27.75;16.92;;;;;;;13.58;49.92;101366.03;4857707;28;97175;-87
2022/04/29 01:27:38;;;;;;;33.78;17.02;;;;;;;13.59;49.78;101357.25;4857043;28;101195;-87
2022/04/29 01:30:08;;;;;;;27.15;16.58;;;;;;;13.52;49.89;101358.31;4856004;28;99990;-86
2022/04/29 01:32:35;;;;;;;28.00;16.10;;;;;;;13.47;50.52;101357.63;4853219;28;97732;-86
2022/04/29 01:35:02;;;;;;;24.67;15.48;;;;;;;13.52;50.19;101359.19;4859245;28;97385;-86
2022/04/29 01:37:28;;;;;;;23.90;15.27;;;;;;;13.37;50.72;101357.00;4843721;28;101510;-85
2022/04/29 01:39:54;;;;;;;25.27;14.63;;;;;;;13.27;50.62;101330.06;4859985;28;101408;-87
2022/04/29 01:42:20;;;;;;;26.33;15.65;;;;;;;13.36;50.44;101342.09;4860279;28;96828;-86
2022/04/29 01:44:46;;;;;;;26.63;15.80;;;;;;;13.17;50.86;101335.59;4855525;28;96960;-86
2022/04/29 01:47:13;;;;;;;27.77;16.15;;;;;;;13.18;50.78;101335.56;4878545;28;100828;-86
2022/04/29 01:49:57;;;;;;;26.17;15.77;;;;;;;13.21;51.68;101364.47;4874961;28;98451;-86
2022/04/29 01:52:24;;;;;;;24.98;15.48;;;;;;;13.23;51.37;101352.09;4863160;28;96970;-86
2022/04/29 01:54:51;;;;;;;24.52;15.43;;;;;;;13.21;51.11;101335.47;4860506;28;96977;-86
2022/04/29 01:57:17;;;;;;;22.75;14.73;;;;;;;13.22;51.44;101345.09;4861590;28;100448;-86
2022/04/29 01:59:43;;;;;;;19.27;13.25;;;;;;;12.94;51.94;101296.72;4878947;28;101435;-87
2022/04/29 02:02:21;;;;;;;26.83;14.43;;;;;;;13.10;51.48;101333.13;4879929;28;96881;-86
2022/04/29 02:04:46;;;;;;;20.13;12.98;;;;;;;13.18;51.58;101340.84;4880202;28;97494;-88
2022/04/29 02:07:14;;;;;;;21.85;14.13;;;;;;;13.25;51.56;101331.84;4859111;28;99533;-86
2022/04/29 02:09:43;;;;;;;22.15;13.82;;;;;;;13.07;51.67;101327.94;4874547;28;100618;-86
2022/04/29 02:12:11;;;;;;;21.45;14.20;;;;;;;13.04;52.38;101335.09;4878453;28;96802;-85
2022/04/29 02:14:55;;;;;;;22.38;13.88;;;;;;;13.08;52.47;101349.91;4893605;28;96803;-86
2022/04/29 02:17:25;;;;;;;20.63;13.40;;;;;;;13.24;51.59;101340.66;4878941;28;101659;-86
2022/04/29 02:19:51;;;;;;;22.38;13.50;;;;;;;13.16;52.02;101340.00;4862553;28;101302;-86
2022/04/29 02:22:16;;;;;;;24.08;14.07;;;;;;;13.23;51.49;101346.81;4871874;28;97091;-87
2022/04/29 02:24:43;;;;;;;22.23;13.80;;;;;;;13.09;52.26;101349.88;4856087;28;97760;-86
2022/04/29 02:27:08;;;;;;;23.00;14.63;;;;;;;13.01;52.25;101337.81;4855227;28;100615;-86
2022/04/29 02:29:37;;;;;;;19.98;13.45;;;;;;;12.99;52.94;101352.78;4850890;28;101418;-87
2022/04/29 02:32:11;;;;;;;24.02;13.90;;;;;;;13.17;52.11;101359.31;4864316;28;97194;-87
2022/04/29 02:34:37;;;;;;;22.60;13.38;;;;;;;13.03;52.19;101342.13;4878277;28;96992;-87
2022/04/29 02:37:04;;;;;;;23.25;13.45;;;;;;;12.89;52.59;101312.66;4873543;28;100285;-86
2022/04/29 02:39:31;;;;;;;24.90;14.40;;;;;;;12.90;52.56;101336.31;4861619;28;101555;-87
2022/04/29 02:41:57;;;;;;;22.35;13.60;;;;;;;12.85;52.98;101327.66;4862509;28;96784;-84
2022/04/29 02:44:22;;;;;;;23.17;14.57;;;;;;;13.02;52.55;101334.25;4852792;28;97065;-86
2022/04/29 02:47:07;;;;;;;20.35;13.57;;;;;;;12.98;52.07;101322.09;4873931;28;101393;-88
2022/04/29 02:49:38;;;;;;;22.90;14.57;;;;;;;12.82;52.51;101327.75;4845662;28;101267;-89
2022/04/29 02:52:08;;;;;;;21.73;14.10;;;;;;;12.83;52.39;101331.28;4843237;28;97055;-87
2022/04/29 02:54:33;;;;;;;20.88;13.00;;;;;;;12.79;52.67;101329.63;4862877;28;97275;-88
2022/04/29 02:57:00;;;;;;;22.40;13.45;;;;;;;12.90;52.45;101341.59;4857698;28;100988;-88
2022/04/29 02:59:38;;;;;;;21.48;13.93;;;;;;;12.86;52.68;101334.69;4860101;28;101361;-87
2022/04/29 03:02:04;;;;;;;22.80;12.43;;;;;;;12.83;52.59;101336.56;4858529;28;97213;-88
2022/04/29 03:04:30;;;;;;;19.25;13.30;;;;;;;12.84;52.46;101333.84;4843556;28;96999;-86
2022/04/29 03:06:57;;;;;;;24.08;12.73;;;;;;;12.73;52.74;101330.66;4858688;28;101113;-86
2022/04/29 03:09:24;;;;;;;20.70;13.55;;;;;;;12.80;52.53;101332.22;4890137;28;98509;-86
2022/04/29 03:11:50;;;;;;;21.38;12.48;;;;;;;12.84;52.71;101344.41;4871529;28;97057;-87
2022/04/29 03:14:17;;;;;;;21.38;12.73;;;;;;;12.84;52.75;101343.53;4873617;28;96854;-86
2022/04/29 03:16:43;;;;;;;18.75;12.85;;;;;;;12.83;52.71;101340.03;4858698;28;100137;-87
2022/04/29 03:19:09;;;;;;;19.58;12.93;;;;;;;12.68;53.40;101335.16;4842247;28;101693;-87
2022/04/29 03:21:36;;;;;;;21.85;12.30;;;;;;;12.78;52.96;101346.34;4859193;28;96999;-87
2022/04/29 03:24:03;;;;;;;24.30;12.40;;;;;;;12.73;52.93;101341.19;4857016;28;97138;-86
2022/04/29 03:26:30;;;;;;;21.23;13.27;;;;;;;12.72;53.55;101354.41;4862825;28;98365;-87
2022/04/29 03:28:57;;;;;;;20.77;13.63;;;;;;;12.59;53.71;101346.81;4858469;28;98317;-87
2022/04/29 03:31:23;;;;;;;21.25;12.90;;;;;;;12.66;53.95;101352.81;4851378;29;96922;-87
2022/04/29 03:34:11;;;;;;;26.65;13.63;;;;;;;12.66;53.41;101352.81;4848326;28;96913;-87
2022/04/29 03:36:37;;;;;;;25.45;13.40;;;;;;;12.58;53.11;101325.78;4857898;28;101164;-87
2022/04/29 03:39:03;;;;;;;20.90;12.52;;;;;;;12.77;53.02;101358.66;4857269;28;101521;-88
2022/04/29 03:41:30;;;;;;;19.27;11.93;;;;;;;12.64;53.54;101334.38;4874734;28;96839;-88
2022/04/29 03:43:57;;;;;;;20.20;12.18;;;;;;;12.79;52.85;101356.81;4846966;28;97179;-86
2022/04/29 03:46:28;;;;;;;26.13;13.18;;;;;;;12.53;53.49;101325.03;4874261;28;101904;-87
2022/04/29 03:52:20;;;;;;;20.02;12.95;;;;;;;12.75;53.26;101362.22;4884751;28;96984;-89
2022/04/29 03:54:48;;;;;;;21.15;12.63;;;;;;;12.74;53.56;101371.91;4862035;28;97096;-84
2022/04/29 03:57:14;;;;;;;28.25;13.40;;;;;;;12.59;53.33;101348.59;4860154;28;100814;-86
2022/04/29 03:59:40;;;;;;;24.42;13.60;;;;;;;12.66;53.69;101371.25;4861505;28;101589;-86
2022/04/29 04:02:06;;;;;;;24.35;13.55;;;;;;;12.52;53.72;101347.03;4892865;28;97052;-88
2022/04/29 04:04:32;;;;;;;18.13;13.18;;;;;;;12.45;53.59;101343.69;4854839;28;97973;-87
2022/04/29 04:07:02;;;;;;;21.35;12.63;;;;;;;12.67;53.23;101367.69;4894292;28;100517;-88
2022/04/29 04:09:41;;;;;;;;;;;;;;;12.77;53.83;101378.84;4895503;28;101530;-87
2022/04/29 04:12:09;;;;;;;19.05;12.50;;;;;;;12.81;52.59;101362.06;4860957;28;96707;-87
2022/04/29 04:15:02;;;;;;;21.88;13.15;;;;;;;12.88;52.64;101377.66;4864644;28;97265;-85
2022/04/29 04:17:32;;;;;;;25.52;13.88;;;;;;;12.66;52.88;101353.66;4859131;28;100319;-90
2022/04/29 04:19:58;;;;;;;23.80;13.95;;;;;;;12.67;53.03;101368.56;4869113;28;97860;-87
2022/04/29 04:22:23;;;;;;;19.60;12.23;;;;;;;12.71;53.70;101385.13;4865848;28;96856;-87
2022/04/29 04:24:49;;;;;;;20.17;12.65;;;;;;;12.71;53.71;101373.75;4875304;28;97174;-88
2022/04/29 04:27:15;;;;;;;25.00;12.13;;;;;;;12.74;53.34;101365.75;4856006;28;101357;-87
2022/04/29 04:29:40;;;;;;;19.25;13.20;;;;;;;12.80;53.66;101384.91;4860278;28;100799;-90
2022/04/29 04:32:06;;;;;;;24.83;12.43;;;;;;;12.72;53.49;101375.50;4860152;28;96995;-89
2022/04/29 04:34:50;;;;;;;20.05;12.50;;;;;;;12.75;53.67;101384.16;4883863;28;97402;-89
2022/04/29 04:37:23;;;;;;;21.05;12.95;;;;;;;12.82;53.70;101391.00;4858610;28;101581;-87
2022/04/29 04:39:58;;;;;;;20.67;13.23;;;;;;;12.93;53.68;101396.00;4886766;28;98626;-88
2022/04/29 04:42:25;;;;;;;20.88;13.07;;;;;;;12.84;53.38;101386.56;4864819;28;96858;-88
2022/04/29 04:44:56;;;;;;;23.70;12.77;;;;;;;12.84;53.24;101389.19;4845172;28;97008;-88
2022/04/29 04:47:23;;;;;;;21.77;12.90;;;;;;;12.79;53.54;101400.75;4829003;28;99628;-87
2022/04/29 04:50:08;;;;;;;24.52;12.93;;;;;;;12.90;53.28;101396.94;4848397;28;98186;-86
2022/04/29 04:52:34;;;;;;;20.50;12.48;;;;;;;12.90;53.71;101401.34;4839947;28;98029;-87
2022/04/29 04:55:07;;;;;;;21.25;12.63;;;;;;;12.85;53.83;101409.34;4835671;28;96999;-88
2022/04/29 04:57:35;;;;;;;19.08;12.15;;;;;;;12.91;53.83;101400.44;4856691;28;101642;-88
2022/04/29 05:00:01;;;;;;;25.27;13.70;;;;;;;12.95;53.76;101402.09;4833917;28;101141;-88
2022/04/29 05:02:42;;;;;;;24.13;12.32;;;;;;;12.97;54.01;101413.44;4838491;28;97405;-87
2022/04/29 05:05:34;;;;;;;28.35;14.50;;;;;;;12.98;53.42;101403.78;4853381;28;98239;-87
2022/04/29 05:08:05;;;;;;;21.48;13.02;;;;;;;13.14;53.30;101418.25;4842089;28;101831;-85
2022/04/29 05:10:31;;;;;;;22.45;13.00;;;;;;;13.11;53.52;101413.94;4843492;28;101674;-87
2022/04/29 05:12:59;;;;;;;21.40;12.32;;;;;;;13.19;53.32;101420.78;4842869;28;97449;-88
2022/04/29 05:15:31;;;;;;;27.33;12.95;;;;;;;13.21;53.38;101401.38;4860618;28;96898;-88
2022/04/29 05:17:58;;;;;;;24.27;12.60;;;;;;;13.18;53.91;101395.31;4843527;28;100373;-88
2022/04/29 05:20:31;;;;;;;20.75;12.13;;;;;;;13.47;53.58;101421.78;4839685;28;99866;-88
2022/04/29 05:22:57;;;;;;;18.98;11.23;;;;;;;13.50;53.93;101413.78;4854014;28;97475;-86
2022/04/29 05:25:23;;;;;;;21.98;11.48;;;;;;;13.46;53.22;101387.53;4842251;28;97245;-88
2022/04/29 05:28:24;;;;;;;22.15;11.93;;;;;;;13.80;53.19;101422.56;4859293;28;97320;-88
2022/04/29 05:31:08;;;;;;;26.50;11.45;;;;;;;13.87;52.67;101420.59;4861203;28;97166;-88
2022/04/29 05:33:56;;;;;;;21.80;11.93;;;;;;;13.97;51.88;101429.09;4843338;28;96974;-87
2022/04/29 05:36:41;;;;;;;18.17;11.68;;;;;;;14.04;51.19;101422.72;4872401;28;97265;-87
2022/04/29 05:44:39;;;;;;;21.30;11.10;;;;;;;14.75;51.16;101423.97;4881567;28;97294;-88
2022/04/29 05:47:05;;;;;;;20.83;10.73;;;;;;;15.13;50.28;101424.44;4861805;28;98103;-83
2022/04/29 05:49:31;;;;;;;23.40;11.57;;;;;;;15.39;49.89;101410.28;4857214;28;101945;-83
2022/04/29 05:51:59;;;;;;;29.08;12.90;;;;;;;15.75;48.49;101412.47;4880532;28;101964;-86
2022/04/29 05:54:25;;;;;;;28.05;10.65;;;;;;;16.04;46.12;101420.16;4858484;28;100558;-85
2022/04/29 05:56:52;;;;;;;21.27;11.38;;;;;;;16.43;45.24;101419.47;4887148;28;96826;-84
2022/04/29 05:59:18;;;;;;;18.30;8.75;;;;;;;16.55;44.69;101396.03;4898173;28;100551;-85
2022/04/29 06:01:57;;;;;;;17.13;8.07;;;;;;;17.00;43.17;101403.00;4864332;28;99475;-85
2022/04/29 06:04:31;;;;;;;18.17;6.50;;;;;;;17.37;40.63;101416.34;4877101;28;98249;-84
2022/04/29 06:06:57;;;;;;;11.50;5.78;;;;;;;17.65;40.03;101397.34;4879220;28;97197;-86
2022/04/29 06:09:22;;;;;;;13.25;5.93;;;;;;;18.05;39.60;101413.22;4886956;28;100535;-86
2022/04/29 06:11:48;;;;;;;22.15;6.53;;;;;;;18.44;38.29;101406.91;4894543;28;98386;-83
2022/04/29 06:14:25;;;;;;;10.93;5.00;;;;;;;18.84;36.67;101394.28;4875600;28;98515;-84
2022/04/29 06:17:09;;;;;;;9.88;5.28;;;;;;;19.15;36.55;101407.72;4890061;28;100624;-82
2022/04/29 06:19:53;;;;;;;14.25;5.25;;;;;;;19.59;35.41;101408.94;4879627;28;97428;-84
2022/04/29 06:22:57;;;;;;;9.15;4.82;;;;;;;19.94;34.22;101404.34;4873383;28;99215;-84
2022/04/29 06:25:28;;;;;;;14.10;5.30;;;;;;;20.23;33.97;101416.03;4862475;28;96804;-84
2022/04/29 06:27:55;;;;;;;13.15;5.10;;;;;;;20.47;34.06;101411.06;4859026;28;96991;-84
2022/04/29 06:30:21;;;;;;;13.88;6.05;;;;;;;20.91;33.69;101409.41;4878850;28;100498;-81
2022/04/29 06:33:02;;;;;;;16.50;5.50;;;;;;;21.18;33.27;101410.44;4882316;28;99097;-81
2022/04/29 06:35:42;;;;;;;10.18;4.88;;;;;;;21.33;33.10;101399.75;4880892;28;97878;-80
2022/04/29 06:38:11;;;;;;;15.07;5.28;;;;;;;21.84;32.78;101422.34;4880895;28;97038;-83
2022/04/29 06:40:55;;;;;;;14.70;5.80;;;;;;;22.10;32.00;101417.13;4882512;28;99168;-79
2022/04/29 06:43:23;;;;;;;8.88;4.53;;;;;;;22.47;31.63;101418.28;4893531;28;98905;-79
2022/04/29 06:46:27;;;;;;;7.32;3.65;;;;;;;22.80;30.98;101419.63;4840213;29;96916;-82
2022/04/29 06:49:11;;;;;;;13.73;3.92;;;;;;;23.05;30.79;101397.41;4836711;29;97116;-83
2022/04/29 06:52:06;;;;;;;12.60;3.83;;;;;;;23.45;29.85;101408.88;4817348;28;100073;-84
2022/04/29 06:54:36;;;;;;;8.70;3.80;;;;;;;23.70;28.86;101407.97;4864829;28;101726;-82
2022/04/29 06:57:09;;;;;;;6.38;3.78;;;;;;;23.86;28.31;101412.25;4878824;28;97486;-86
2022/04/29 06:59:36;;;;;;;5.97;3.25;;;;;;;24.10;28.21;101402.38;4889889;28;97194;-86
2022/04/29 07:02:01;;;;;;;6.18;3.78;;;;;;;24.41;27.97;101408.16;4879567;28;100071;-80
2022/04/29 07:04:28;;;;;;;12.15;4.38;;;;;;;24.52;27.82;101413.63;4884187;28;100969;-81
2022/04/29 07:06:57;;;;;;;6.47;3.97;;;;;;;24.59;27.55;101406.78;4876623;28;96849;-80
2022/04/29 07:09:27;;;;;;;8.43;4.07;;;;;;;24.90;26.47;101401.78;4873023;28;97156;-81
2022/04/29 07:11:59;;;;;;;9.95;3.90;;;;;;;25.17;26.58;101406.00;4887499;28;98093;-78
2022/04/29 07:14:45;;;;;;;6.78;3.67;;;;;;;25.52;25.71;101409.41;4896435;28;99253;-90
2022/04/29 07:17:11;;;;;;;5.97;4.03;;;;;;;25.78;25.13;101405.63;4877760;28;96873;-87
2022/04/29 07:19:42;;;;;;;5.50;3.40;;;;;;;25.83;24.97;101412.38;4866994;28;97460;-87
2022/04/29 07:22:08;;;;;;;8.00;3.60;;;;;;;25.99;25.18;101398.50;4896691;28;98764;-83
2022/04/29 07:24:41;;;;;;;6.97;3.65;;;;;;;26.19;25.32;101408.47;4879831;28;101584;-84
2022/04/29 07:27:06;;;;;;;10.98;5.07;;;;;;;26.52;25.06;101398.56;4874859;28;97172;-81
2022/04/29 07:29:33;;;;;;;8.00;3.67;;;;;;;26.77;24.85;101409.97;4907701;28;96724;-85
2022/04/29 07:32:06;;;;;;;6.68;3.63;;;;;;;26.88;24.94;101396.44;4855301;28;101837;-79
2022/04/29 07:43:05;;;;;;;5.70;3.70;;;;;;;28.02;23.68;101394.53;4880171;28;101818;-91
2022/04/29 07:45:34;;;;;;;7.07;4.07;;;;;;;28.35;23.87;101388.72;4876559;28;100031;-85
2022/04/29 07:48:20;;;;;;;8.18;3.58;;;;;;;28.89;23.17;101397.25;4856985;28;97370;-84
2022/04/29 07:50:46;;;;;;;8.55;3.60;;;;;;;29.05;22.51;101378.59;4862065;28;97129;-83
2022/04/29 07:53:13;;;;;;;7.45;3.50;;;;;;;29.08;23.16;101407.16;4875764;28;101227;-84
2022/04/29 07:55:39;;;;;;;8.07;3.70;;;;;;;29.44;22.76;101396.50;4874110;28;101385;-83
2022/04/29 07:58:05;;;;;;;5.85;3.88;;;;;;;29.66;22.58;101404.25;4870887;28;97258;-83
2022/04/29 08:00:31;;;;;;;6.68;3.95;;;;;;;29.68;21.55;101409.53;4860015;28;97935;-83
2022/04/29 08:03:01;;;;;;;7.75;3.28;;;;;;;29.86;21.46;101396.88;4855792;28;101632;-83
2022/04/29 08:05:46;;;;;;;5.32;3.22;;;;;;;30.43;21.22;101404.78;4891758;28;98107;-82
2022/04/29 08:08:12;;;;;;;7.03;3.47;;;;;;;30.55;21.45;101402.69;4860309;28;97707;-88
2022/04/29 08:10:37;;;;;;;6.90;3.63;;;;;;;30.82;20.59;101408.00;4863513;28;97158;-84
2022/04/29 08:13:03;;;;;;;7.25;3.00;;;;;;;30.78;21.21;101405.75;4859694;28;101716;-81
2022/04/29 08:15:55;;;;;;;10.52;3.47;;;;;;;30.81;21.46;101398.16;4875298;28;98976;-78
2022/04/29 08:18:46;;;;;;;6.07;4.07;;;;;;;31.09;21.47;101401.56;4862845;28;97598;-82
2022/04/29 08:21:13;;;;;;;4.57;3.08;;;;;;;30.96;21.98;101392.16;4874058;28;97020;-80
2022/04/29 08:23:39;;;;;;;4.93;2.50;;;;;;;31.23;21.40;101391.97;4867057;28;101155;-80
2022/04/29 08:26:04;;;;;;;5.75;3.53;;;;;;;31.45;21.39;101382.47;4870431;28;97937;-78
2022/04/29 08:28:31;;;;;;;5.18;2.80;;;;;;;31.56;21.03;101374.03;4872361;28;96988;-83
2022/04/29 08:30:57;;;;;;;8.93;3.42;;;;;;;30.66;21.07;101387.03;4890202;28;97114;-79
2022/04/29 08:33:38;;;;;;;5.75;2.90;;;;;;;29.83;22.36;101388.22;4876518;28;102161;-82
2022/04/29 08:36:15;;;;;;;5.15;3.05;;;;;;;29.99;21.95;101381.13;4872569;28;100814;-81
2022/04/29 08:38:41;;;;;;;7.60;3.15;;;;;;;29.77;22.24;101374.28;4885962;28;97357;-76
2022/04/29 08:41:08;;;;;;;6.57;3.13;;;;;;;29.62;22.22;101373.13;4875194;28;97539;-76
2022/04/29 08:43:35;;;;;;;8.55;2.60;;;;;;;30.24;21.99;101375.97;4890470;28;102079;-75
2022/04/29 08:46:05;;;;;;;6.18;2.97;;;;;;;30.71;22.29;101377.56;4870390;28;101569;-74
2022/04/29 08:48:50;;;;;;;5.53;2.97;;;;;;;31.20;21.19;101373.31;4879980;28;97531;-74
2022/04/29 08:51:16;;;;;;;5.30;3.00;;;;;;;31.57;19.91;101359.44;4890006;28;96946;-75
2022/04/29 08:53:42;;;;;;;10.32;3.13;;;;;;;31.41;19.79;101344.97;4856257;28;101437;-77
2022/04/29 08:58:53;;;;;;;4.07;2.80;;;;;;;31.81;20.57;101357.81;4871552;28;96903;-84
2022/04/29 09:01:20;;;;;;;8.75;2.97;;;;;;;31.47;21.49;101353.28;4857833;28;96905;-82
2022/04/29 09:03:46;;;;;;;5.60;2.92;;;;;;;31.71;20.75;101360.69;4851698;28;100348;-76
2022/04/29 09:06:14;;;;;;;4.63;2.92;;;;;;;32.22;20.73;101352.47;4864704;28;98500;-78
2022/04/29 09:08:45;;;;;;;7.30;3.38;;;;;;;32.55;19.83;101356.06;4858413;28;97346;-81
2022/04/29 09:11:12;;;;;;;4.47;2.40;;;;;;;31.65;19.98;101345.06;4870228;28;97256;-80
2022/04/29 09:13:38;;;;;;;6.18;2.70;;;;;;;30.23;21.23;101361.59;4856316;28;101206;-80
2022/04/29 09:16:10;;;;;;;6.88;3.10;;;;;;;29.74;21.48;101357.53;4871575;28;101364;-81
2022/04/29 09:18:41;;;;;;;5.70;3.13;;;;;;;30.11;21.03;101333.03;4875950;28;97987;-81
2022/04/29 09:21:12;;;;;;;4.95;3.20;;;;;;;29.73;20.84;101339.56;4906118;28;97366;-81
2022/04/29 09:23:57;;;;;;;4.38;2.53;;;;;;;29.19;22.29;101333.16;4887346;28;98928;-81
2022/04/29 09:26:51;;;;;;;4.85;2.85;;;;;;;28.88;22.27;101342.31;4843772;28;97495;-80
2022/04/29 09:29:21;;;;;;;3.75;2.53;;;;;;;28.38;22.33;101341.69;4884529;28;97981;-80
2022/04/29 09:31:59;;;;;;;4.75;2.45;;;;;;;28.58;22.63;101335.31;4897501;28;97471;-80
2022/04/29 09:34:54;;;;;;;5.03;2.58;;;;;;;29.14;22.74;101340.84;4873098;28;98002;-80
2022/04/29 09:37:22;;;;;;;5.75;2.50;;;;;;;29.18;22.39;101324.22;4891758;28;101768;-84
2022/04/29 09:40:05;;;;;;;5.93;3.13;;;;;;;29.36;21.87;101339.63;4866970;28;97543;-83
2022/04/29 09:42:45;;;;;;;10.25;3.53;;;;;;;28.76;22.38;101337.25;4880028;28;97315;-83
2022/04/29 09:45:21;;;;;;;6.45;3.00;;;;;;;28.30;22.50;101334.28;4860617;28;101048;-82
2022/04/29 09:47:53;;;;;;;5.55;3.15;;;;;;;27.83;23.53;101334.16;4871469;28;98190;-82
2022/04/29 09:50:19;;;;;;;4.82;2.58;;;;;;;27.45;23.46;101337.59;4882253;28;98017;-82
2022/04/29 09:52:45;;;;;;;7.68;2.53;;;;;;;27.32;23.99;101324.38;4889232;28;96904;-81
2022/04/29 09:55:13;;;;;;;7.13;2.47;;;;;;;27.51;24.02;101304.69;4862601;28;101587;-82
2022/04/29 09:57:48;;;;;;;4.55;2.38;;;;;;;27.64;24.09;101336.78;4880850;28;101208;-81
2022/04/29 10:00:14;;;;;;;6.40;2.95;;;;;;;27.37;23.56;101322.09;4885482;28;97659;-82
2022/04/29 10:02:41;;;;;;;9.57;2.65;;;;;;;26.87;24.24;101335.47;4875687;28;97399;-82
2022/04/29 10:05:08;;;;;;;7.47;2.70;;;;;;;26.63;24.37;101312.38;4875613;28;101861;-82
2022/04/29 10:07:35;;;;;;;8.38;2.63;;;;;;;26.49;24.61;101339.59;4870652;28;100713;-82
2022/04/29 10:10:03;;;;;;;7.40;3.00;;;;;;;26.17;24.51;101332.41;4888355;28;97313;-83
2022/04/29 10:12:29;;;;;;;5.13;2.50;;;;;;;26.32;24.59;101332.09;4874096;28;97130;-83
2022/04/29 10:15:27;;;;;;;3.78;2.35;;;;;;;26.31;24.73;101304.31;4862715;28;97408;-82
2022/04/29 10:23:38;;;;;;;8.63;3.17;;;;;;;26.31;25.11;101323.16;4878844;28;97235;-83
2022/04/29 10:26:04;;;;;;;5.90;2.80;;;;;;;26.20;25.25;101326.75;4870461;28;101451;-84
2022/04/29 10:28:30;;;;;;;7.63;2.53;;;;;;;25.76;25.56;101319.69;4863847;28;98090;-83
2022/04/29 10:31:06;;;;;;;4.40;2.17;;;;;;;25.54;26.00;101307.16;4891582;28;97137;-84
2022/04/29 10:33:32;;;;;;;6.10;2.70;;;;;;;25.52;25.83;101323.41;4876628;28;97274;-81
2022/04/29 10:36:06;;;;;;;5.25;2.80;;;;;;;25.36;26.18;101320.25;4873869;28;108124;-84
2022/04/29 10:38:34;;;;;;;9.80;3.33;;;;;;;25.15;26.81;101303.16;4892661;28;97839;-84
2022/04/29 10:41:06;;;;;;;6.75;2.78;;;;;;;25.21;26.76;101316.09;4871260;28;96925;-84
2022/04/29 10:43:33;;;;;;;7.15;2.92;;;;;;;24.83;26.76;101299.34;4877866;28;97159;-83
2022/04/29 10:46:06;;;;;;;3.50;2.45;;;;;;;24.75;26.62;101311.66;4874542;28;99537;-84
2022/04/29 10:48:42;;;;;;;6.75;3.00;;;;;;;24.68;26.67;101308.59;4880122;28;102109;-85
2022/04/29 10:51:27;;;;;;;5.13;2.90;;;;;;;24.55;27.20;101318.56;4879746;28;97050;-83
2022/04/29 10:54:53;;;;;;;4.32;2.05;;;;;;;24.35;27.25;101315.56;4902548;28;98676;-84
2022/04/29 10:57:42;;;;;;;6.18;2.65;;;;;;;24.40;27.52;101307.16;4842682;28;101194;-84
2022/04/29 11:00:11;;;;;;;8.88;3.45;;;;;;;24.49;28.42;101311.84;4869228;28;101206;-84
2022/04/29 11:02:39;;;;;;;7.07;3.17;;;;;;;24.50;28.65;101307.34;4876632;28;97471;-84
2022/04/29 11:05:07;;;;;;;6.15;3.00;;;;;;;24.54;27.96;101306.13;4876522;28;97677;-84
2022/04/29 11:07:38;;;;;;;11.18;2.50;;;;;;;24.40;27.87;101291.06;4855998;28;101482;-84
2022/04/29 11:10:10;;;;;;;4.70;2.38;;;;;;;24.31;27.41;101289.09;4874594;28;100050;-84
2022/04/29 11:12:39;;;;;;;3.42;2.30;;;;;;;24.14;27.14;101296.63;4884278;28;97217;-84
2022/04/29 11:15:39;;;;;;;8.25;2.20;;;;;;;23.94;28.06;101290.06;4876485;28;96905;-84
2022/04/29 11:18:19;;;;;;;4.72;2.38;;;;;;;23.92;27.21;101296.50;4882740;28;101954;-83
2022/04/29 11:20:47;;;;;;;4.68;2.00;;;;;;;23.81;27.32;101283.91;4880799;28;100665;-85
2022/04/29 11:26:00;;;;;;;5.18;2.47;;;;;;;23.81;27.48;101283.03;4874392;28;98232;-84
2022/04/29 11:28:42;;;;;;;2.88;2.00;;;;;;;23.87;27.69;101277.22;4877027;28;102135;-84
2022/04/29 11:31:35;;;;;;;6.03;2.33;;;;;;;23.84;26.49;101283.66;4886651;28;99290;-84
2022/04/29 11:34:07;;;;;;;3.33;1.90;;;;;;;23.52;26.18;101277.97;4892113;28;97059;-83
2022/04/29 11:36:32;;;;;;;5.25;2.00;;;;;;;23.41;26.42;101272.53;4874479;28;96881;-84
2022/04/29 11:38:58;;;;;;;4.90;2.15;;;;;;;23.46;26.89;101290.00;4889512;28;101391;-84
2022/04/29 11:41:29;;;;;;;11.63;2.92;;;;;;;23.30;27.39;101283.19;4875327;28;101206;-83
2022/04/29 11:43:55;;;;;;;7.07;2.30;;;;;;;23.45;27.85;101282.09;4887841;28;97008;-84
2022/04/29 11:46:22;;;;;;;4.60;1.90;;;;;;;23.45;27.80;101274.91;4875958;28;97179;-84
2022/04/29 11:48:54;;;;;;;5.35;1.95;;;;;;;23.43;27.88;101274.16;4872298;28;101395;-84
2022/04/29 11:51:20;;;;;;;5.63;2.10;;;;;;;23.42;27.52;101266.25;4867235;28;98064;-82
2022/04/29 11:54:03;;;;;;;5.93;2.00;;;;;;;23.35;26.96;101265.81;4875374;28;98403;-83
2022/04/29 11:56:37;;;;;;;3.05;1.65;;;;;;;23.27;26.89;101261.03;4890531;28;97800;-85
2022/04/29 11:59:04;;;;;;;3.58;1.75;;;;;;;23.30;27.19;101249.25;4858462;28;99709;-83
2022/04/29 12:01:30;;;;;;;4.72;1.77;;;;;;;23.24;28.22;101255.03;4873293;28;101785;-84